createdAt,value
2017-12-08T00:00:47.103Z,9.80
2017-12-08T00:03:14.134Z,9.80
2017-12-08T00:05:41.200Z,9.80
2017-12-08T00:08:08.265Z,9.90
2017-12-08T00:10:34.625Z,9.80
2017-12-08T00:13:01.013Z,9.90
2017-12-08T00:15:28.086Z,10.00
2017-12-08T00:17:54.389Z,9.90
2017-12-08T00:20:21.438Z,10.00
2017-12-08T00:22:48.513Z,10.00
2017-12-08T00:25:14.824Z,10.00
2017-12-08T00:27:41.858Z,9.90
2017-12-08T00:30:08.948Z,9.90
2017-12-08T00:32:35.361Z,9.90
2017-12-08T00:35:01.697Z,9.90
2017-12-08T00:37:27.982Z,9.80
2017-12-08T00:39:54.339Z,9.80
2017-12-08T00:42:27.746Z,9.70
2017-12-08T00:44:54.236Z,9.70
2017-12-08T00:47:20.512Z,9.70
2017-12-08T00:49:46.900Z,9.60
2017-12-08T00:52:14.700Z,9.30
2017-12-08T00:54:48.766Z,9.10
2017-12-08T00:57:15.112Z,9.10
2017-12-08T00:59:41.405Z,9.00
2017-12-08T01:02:07.796Z,8.80
2017-12-08T01:04:34.872Z,8.50
2017-12-08T01:07:01.180Z,8.50
2017-12-08T01:09:28.280Z,8.20
2017-12-08T01:11:54.584Z,8.20
2017-12-08T01:14:20.892Z,8.20
2017-12-08T01:16:47.940Z,7.80
2017-12-08T01:19:14.986Z,7.80
2017-12-08T01:21:42.049Z,7.60
2017-12-08T01:24:09.093Z,7.50
2017-12-08T01:26:36.111Z,7.40
2017-12-08T01:29:02.464Z,7.40
2017-12-08T01:31:29.573Z,7.20
2017-12-08T01:33:55.852Z,7.20
2017-12-08T01:36:22.950Z,7.10
2017-12-08T01:38:49.332Z,7.10
2017-12-08T01:41:16.448Z,7.00
2017-12-08T01:43:42.725Z,7.00
2017-12-08T01:46:09.016Z,6.90
2017-12-08T01:48:35.323Z,6.90
2017-12-08T01:51:01.594Z,6.80
2017-12-08T01:53:27.908Z,6.80
2017-12-08T01:55:54.263Z,6.80
2017-12-08T01:58:21.312Z,6.90
2017-12-08T02:00:47.586Z,6.80
2017-12-08T02:03:13.875Z,6.80
2017-12-08T02:05:41.827Z,6.80
2017-12-08T02:08:08.093Z,6.80
2017-12-08T02:10:34.424Z,6.80
2017-12-08T02:13:00.754Z,6.80
2017-12-08T02:15:27.037Z,6.80
2017-12-08T02:17:53.366Z,6.90
2017-12-08T02:20:19.687Z,6.80
2017-12-08T02:22:45.997Z,6.80
2017-12-08T02:25:12.276Z,6.80
2017-12-08T02:27:39.443Z,6.80
2017-12-08T02:30:05.736Z,6.80
2017-12-08T02:32:32.072Z,6.80
2017-12-08T02:34:59.115Z,6.80
2017-12-08T02:37:25.414Z,6.80
2017-12-08T02:39:51.774Z,6.80
2017-12-08T02:42:18.111Z,6.70
2017-12-08T02:44:44.461Z,6.70
2017-12-08T02:47:11.518Z,6.80
2017-12-08T02:49:38.946Z,6.80
2017-12-08T02:52:05.240Z,6.80
2017-12-08T02:54:31.609Z,6.70
2017-12-08T02:56:57.907Z,6.70
2017-12-08T02:59:24.222Z,6.70
2017-12-08T03:01:50.527Z,6.70
2017-12-08T03:04:17.568Z,6.70
2017-12-08T03:06:44.573Z,6.60
2017-12-08T03:09:10.844Z,6.60
2017-12-08T03:11:37.188Z,6.60
2017-12-08T03:14:04.238Z,6.60
2017-12-08T03:16:31.270Z,6.70
2017-12-08T03:18:58.307Z,6.70
2017-12-08T03:21:24.589Z,6.70
2017-12-08T03:23:50.888Z,6.70
2017-12-08T03:26:17.935Z,6.70
2017-12-08T03:28:44.984Z,6.60
2017-12-08T03:31:12.068Z,6.70
2017-12-08T03:33:38.371Z,6.60
2017-12-08T03:36:05.417Z,6.60
2017-12-08T03:38:32.494Z,6.60
2017-12-08T03:40:58.785Z,6.60
2017-12-08T03:43:25.824Z,6.60
2017-12-08T03:45:52.136Z,6.60
2017-12-08T03:48:18.426Z,6.70
2017-12-08T03:50:44.720Z,6.70
2017-12-08T03:53:11.738Z,6.70
2017-12-08T03:55:38.078Z,6.70
2017-12-08T03:58:04.394Z,6.80
2017-12-08T04:00:30.668Z,6.80
2017-12-08T04:02:57.746Z,6.60
2017-12-08T04:05:24.040Z,6.60
2017-12-08T04:07:51.123Z,6.70
2017-12-08T04:10:17.448Z,6.70
2017-12-08T04:12:43.751Z,6.70
2017-12-08T04:15:10.793Z,6.70
2017-12-08T04:17:37.108Z,6.70
2017-12-08T04:20:03.593Z,6.70
2017-12-08T04:22:29.919Z,6.70
2017-12-08T04:24:56.226Z,6.70
2017-12-08T04:27:23.269Z,6.70
2017-12-08T04:29:49.575Z,6.70
2017-12-08T04:32:15.905Z,6.70
2017-12-08T04:34:42.234Z,6.80
2017-12-08T04:37:09.279Z,6.90
2017-12-08T04:39:35.571Z,6.90
2017-12-08T04:42:01.900Z,7.00
2017-12-08T04:44:28.187Z,7.00
2017-12-08T04:46:54.507Z,7.00
2017-12-08T04:49:20.878Z,7.10
2017-12-08T04:51:47.949Z,7.10
2017-12-08T04:54:14.224Z,7.10
2017-12-08T04:56:40.552Z,7.20
2017-12-08T04:59:06.890Z,7.20
2017-12-08T05:01:33.194Z,7.20
2017-12-08T05:03:59.512Z,7.20
2017-12-08T05:06:25.816Z,7.30
2017-12-08T05:08:52.195Z,7.20
2017-12-08T05:11:18.661Z,7.30
2017-12-08T05:13:45.162Z,7.30
2017-12-08T05:16:11.448Z,7.30
2017-12-08T05:18:38.534Z,7.20
2017-12-08T05:21:04.933Z,7.20
2017-12-08T05:23:31.209Z,7.30
2017-12-08T05:25:58.282Z,7.30
2017-12-08T05:28:24.597Z,7.30
2017-12-08T05:30:50.911Z,7.30
2017-12-08T05:33:17.267Z,7.30
2017-12-08T05:35:43.609Z,7.30
2017-12-08T05:38:09.911Z,7.30
2017-12-08T05:40:36.245Z,7.20
2017-12-08T05:43:02.636Z,7.20
2017-12-08T05:45:28.920Z,7.20
2017-12-08T05:47:55.249Z,7.20
2017-12-08T05:50:21.582Z,7.30
2017-12-08T05:52:47.991Z,7.20
2017-12-08T05:55:14.326Z,7.20
2017-12-08T05:57:41.409Z,7.30
2017-12-08T06:00:08.620Z,7.30
2017-12-08T06:02:34.922Z,7.30
2017-12-08T06:05:01.249Z,7.30
2017-12-08T06:07:28.274Z,7.30
2017-12-08T06:09:55.285Z,7.20
2017-12-08T06:12:21.695Z,7.30
2017-12-08T06:14:48.042Z,7.30
2017-12-08T06:17:14.448Z,7.30
2017-12-08T06:19:40.725Z,7.30
2017-12-08T06:22:07.161Z,7.30
2017-12-08T06:24:33.453Z,7.20
2017-12-08T06:26:59.793Z,7.20
2017-12-08T06:29:26.167Z,7.20
2017-12-08T06:31:52.471Z,7.20
2017-12-08T06:34:18.803Z,7.20
2017-12-08T06:36:45.116Z,7.20
2017-12-08T06:39:11.464Z,7.20
2017-12-08T06:41:37.783Z,7.10
2017-12-08T06:44:04.092Z,7.20
2017-12-08T06:46:30.469Z,7.20
2017-12-08T06:48:56.788Z,7.20
2017-12-08T06:51:23.874Z,7.10
2017-12-08T06:53:50.170Z,7.10
2017-12-08T06:56:16.481Z,7.10
2017-12-08T06:58:42.745Z,7.10
2017-12-08T07:01:09.062Z,7.00
2017-12-08T07:03:35.424Z,7.10
2017-12-08T07:06:02.620Z,7.00
2017-12-08T07:08:28.942Z,7.00
2017-12-08T07:10:55.260Z,7.00
2017-12-08T07:13:22.295Z,7.00
2017-12-08T07:15:49.395Z,7.00
2017-12-08T07:18:15.737Z,7.00
2017-12-08T07:20:42.112Z,7.00
2017-12-08T07:23:09.213Z,6.90
2017-12-08T07:25:35.533Z,6.90
2017-12-08T07:28:01.817Z,6.90
2017-12-08T07:30:28.968Z,6.80
2017-12-08T07:32:56.083Z,6.80
2017-12-08T07:35:22.411Z,6.80
2017-12-08T07:37:48.735Z,6.90
2017-12-08T07:40:15.960Z,6.90
2017-12-08T07:42:42.322Z,6.90
2017-12-08T07:45:08.696Z,6.90
2017-12-08T07:47:35.084Z,6.90
2017-12-08T07:50:01.490Z,7.00
2017-12-08T07:52:27.822Z,6.90
2017-12-08T07:54:54.158Z,7.10
2017-12-08T07:57:20.484Z,7.00
2017-12-08T07:59:46.890Z,7.00
2017-12-08T08:02:13.977Z,6.90
2017-12-08T08:04:40.322Z,6.90
2017-12-08T08:07:06.651Z,6.90
2017-12-08T08:09:32.981Z,7.00
2017-12-08T08:11:59.355Z,7.00
2017-12-08T08:14:25.691Z,6.90
2017-12-08T08:16:52.080Z,6.80
2017-12-08T08:19:18.453Z,6.90
2017-12-08T08:21:44.759Z,6.90
2017-12-08T08:24:11.119Z,6.90
2017-12-08T08:26:37.643Z,6.90
2017-12-08T08:29:04.016Z,7.00
2017-12-08T08:31:30.276Z,7.00
2017-12-08T08:33:56.637Z,7.00
2017-12-08T08:36:22.966Z,6.90
2017-12-08T08:38:49.332Z,6.90
2017-12-08T08:41:15.846Z,6.80
2017-12-08T08:43:42.146Z,6.90
2017-12-08T08:46:08.478Z,6.80
2017-12-08T08:48:34.786Z,6.80
2017-12-08T08:51:01.136Z,6.70
2017-12-08T08:53:27.452Z,6.70
2017-12-08T08:55:53.866Z,6.90
2017-12-08T08:58:20.157Z,6.90
2017-12-08T09:00:46.460Z,6.80
2017-12-08T09:03:12.798Z,6.60
2017-12-08T09:05:45.151Z,6.60
2017-12-08T09:08:11.483Z,6.50
2017-12-08T09:10:37.852Z,6.50
2017-12-08T09:13:04.264Z,6.50
2017-12-08T09:15:30.652Z,6.60
2017-12-08T09:17:57.095Z,6.60
2017-12-08T09:20:23.423Z,6.60
2017-12-08T09:22:49.770Z,6.70
2017-12-08T09:25:16.116Z,6.70
2017-12-08T09:27:42.507Z,6.80
2017-12-08T09:30:08.788Z,6.90
2017-12-08T09:32:35.106Z,7.00
2017-12-08T09:35:01.426Z,7.00
2017-12-08T09:37:27.744Z,7.10
2017-12-08T09:39:54.168Z,7.10
2017-12-08T09:42:20.460Z,7.30
2017-12-08T09:44:46.860Z,7.30
2017-12-08T09:47:13.130Z,7.30
2017-12-08T09:49:39.555Z,7.10
2017-12-08T09:52:05.855Z,7.20
2017-12-08T09:54:32.174Z,7.20
2017-12-08T09:56:58.574Z,7.30
2017-12-08T09:59:25.667Z,7.30
2017-12-08T10:01:52.121Z,7.30
2017-12-08T10:04:18.502Z,7.40
2017-12-08T10:06:44.844Z,7.50
2017-12-08T10:09:11.173Z,7.70
2017-12-08T10:11:37.446Z,7.60
2017-12-08T10:14:03.783Z,7.50
2017-12-08T10:16:30.167Z,7.30
2017-12-08T10:18:56.401Z,7.20
2017-12-08T10:21:22.729Z,7.10
2017-12-08T10:23:49.057Z,7.10
2017-12-08T10:26:15.399Z,7.00
2017-12-08T10:28:41.759Z,7.10
2017-12-08T10:31:08.072Z,7.20
2017-12-08T10:33:34.377Z,7.30
2017-12-08T10:36:00.735Z,7.30
2017-12-08T10:38:27.141Z,7.30
2017-12-08T10:40:54.229Z,7.10
2017-12-08T10:43:20.539Z,7.10
2017-12-08T10:45:46.877Z,7.10
2017-12-08T10:48:13.183Z,7.20
2017-12-08T10:50:39.493Z,7.10
2017-12-08T10:53:06.578Z,7.30
2017-12-08T10:55:32.873Z,7.30
2017-12-08T10:57:59.910Z,7.80
2017-12-08T11:03:22.458Z,8.00
2017-12-08T11:05:48.816Z,8.00
2017-12-08T11:08:15.144Z,8.20
2017-12-08T11:10:41.541Z,8.50
2017-12-08T11:13:07.844Z,9.10
2017-12-08T11:15:34.132Z,9.50
2017-12-08T11:18:00.521Z,9.50
2017-12-08T11:20:26.843Z,10.30
2017-12-08T11:22:53.140Z,10.50
2017-12-08T11:25:20.207Z,11.80
2017-12-08T11:27:46.475Z,11.90
2017-12-08T11:30:12.833Z,11.80
2017-12-08T11:32:39.136Z,10.50
2017-12-08T11:35:05.474Z,9.20
2017-12-08T11:37:31.835Z,8.40
2017-12-08T11:42:31.119Z,7.90
2017-12-08T11:44:57.414Z,5.60
2017-12-08T11:47:23.718Z,4.30
2017-12-08T11:49:50.785Z,4.00
2017-12-08T11:52:17.878Z,4.10
2017-12-08T11:54:44.175Z,4.00
2017-12-08T11:57:10.444Z,4.20
2017-12-08T11:59:36.732Z,4.30
2017-12-08T12:02:03.043Z,4.50
2017-12-08T12:04:30.047Z,4.90
2017-12-08T12:06:56.381Z,4.90
2017-12-08T12:09:23.043Z,5.40
2017-12-08T12:11:49.367Z,5.90
2017-12-08T12:14:15.677Z,7.60
2017-12-08T12:16:42.073Z,9.40
2017-12-08T12:19:08.364Z,10.90
2017-12-08T12:21:34.701Z,10.80
2017-12-08T12:24:00.984Z,10.70
2017-12-08T12:26:27.295Z,11.80
2017-12-08T12:28:53.577Z,13.10
2017-12-08T12:31:19.872Z,13.70
2017-12-08T12:33:46.182Z,12.60
2017-12-08T12:36:12.552Z,13.20
2017-12-08T12:38:38.856Z,14.70
2017-12-08T12:41:05.128Z,14.40
2017-12-08T12:43:31.436Z,15.30
2017-12-08T12:45:57.766Z,14.10
2017-12-08T12:48:24.048Z,14.00
2017-12-08T12:50:51.150Z,14.60
2017-12-08T12:53:17.440Z,14.50
2017-12-08T12:55:43.764Z,14.40
2017-12-08T12:58:10.849Z,14.50
2017-12-08T13:00:37.175Z,14.50
2017-12-08T13:03:03.505Z,13.80
2017-12-08T13:05:29.789Z,14.60
2017-12-08T13:07:56.101Z,14.40
2017-12-08T13:10:23.161Z,14.80
2017-12-08T13:12:49.471Z,14.70
2017-12-08T13:15:15.784Z,13.30
2017-12-08T13:17:42.113Z,13.10
2017-12-08T13:20:08.393Z,12.00
2017-12-08T13:22:34.739Z,12.60
2017-12-08T13:25:01.752Z,12.20
2017-12-08T13:27:28.038Z,12.20
2017-12-08T13:29:54.392Z,12.50
2017-12-08T13:32:20.680Z,13.30
2017-12-08T13:34:47.824Z,12.80
2017-12-08T13:37:15.040Z,14.10
2017-12-08T13:39:41.335Z,14.10
2017-12-08T13:42:07.691Z,14.80
2017-12-08T13:44:34.000Z,14.60
2017-12-08T13:47:00.329Z,13.80
2017-12-08T13:49:26.609Z,10.60
2017-12-08T13:51:52.924Z,9.00
2017-12-08T13:54:38.624Z,7.60
2017-12-08T13:57:04.920Z,7.60
2017-12-08T13:59:31.236Z,7.10
2017-12-08T14:01:57.529Z,6.40
2017-12-08T14:04:23.810Z,6.20
2017-12-08T14:06:50.085Z,6.00
2017-12-08T14:09:16.408Z,5.70
2017-12-08T14:11:42.730Z,5.60
2017-12-08T14:14:09.044Z,5.40
2017-12-08T14:16:35.356Z,5.40
2017-12-08T14:19:01.684Z,5.20
2017-12-08T14:21:28.150Z,5.00
2017-12-08T14:23:54.442Z,5.00
2017-12-08T14:26:20.738Z,4.90
2017-12-08T14:28:47.849Z,4.80
2017-12-08T14:31:14.163Z,4.80
2017-12-08T14:33:40.445Z,4.70
2017-12-08T14:36:06.778Z,4.60
2017-12-08T14:38:33.124Z,4.50
2017-12-08T14:41:00.159Z,4.30
2017-12-08T14:43:26.592Z,4.40
2017-12-08T14:45:52.850Z,4.30
2017-12-08T14:48:20.273Z,4.20
2017-12-08T14:50:46.595Z,4.10
2017-12-08T14:53:12.949Z,4.10
2017-12-08T14:55:39.292Z,4.20
2017-12-08T14:58:05.588Z,4.20
2017-12-08T15:00:32.080Z,4.30
2017-12-08T15:02:58.430Z,4.40
2017-12-08T15:05:24.738Z,4.40
2017-12-08T15:07:51.092Z,4.40
2017-12-08T15:10:17.394Z,4.00
2017-12-08T15:12:43.738Z,3.70
2017-12-08T15:15:10.106Z,3.60
2017-12-08T15:17:36.522Z,3.50
2017-12-08T15:20:02.804Z,3.40
2017-12-08T15:22:29.871Z,3.30
2017-12-08T15:24:56.170Z,3.20
2017-12-08T15:27:22.485Z,3.30
2017-12-08T15:29:48.801Z,3.30
2017-12-08T15:32:15.139Z,3.30
2017-12-08T15:34:41.464Z,3.20
2017-12-08T15:37:07.770Z,3.30
2017-12-08T15:39:34.135Z,3.30
2017-12-08T15:42:00.561Z,3.30
2017-12-08T15:44:26.929Z,3.30
2017-12-08T15:46:53.265Z,3.30
2017-12-08T15:49:19.669Z,3.50
2017-12-08T15:51:46.097Z,3.60
2017-12-08T15:54:12.448Z,3.50
2017-12-08T15:56:38.755Z,3.50
2017-12-08T15:59:05.485Z,3.50
2017-12-08T16:01:31.879Z,3.50
2017-12-08T16:03:58.985Z,3.50
2017-12-08T16:06:25.313Z,3.50
2017-12-08T16:08:51.684Z,3.60
2017-12-08T16:11:18.009Z,3.70
2017-12-08T16:13:44.330Z,3.70
2017-12-08T16:16:10.901Z,3.80
2017-12-08T16:18:37.223Z,3.80
2017-12-08T16:21:03.586Z,3.90
2017-12-08T16:23:29.916Z,3.80
2017-12-08T16:25:56.274Z,3.90
2017-12-08T16:28:22.595Z,3.90
2017-12-08T16:30:48.932Z,3.90
2017-12-08T16:33:15.250Z,3.90
2017-12-08T16:35:41.591Z,3.90
2017-12-08T16:38:08.062Z,3.80
2017-12-08T16:40:35.153Z,4.00
2017-12-08T16:43:01.549Z,3.90
2017-12-08T16:45:29.465Z,3.90
2017-12-08T16:47:55.807Z,3.90
2017-12-08T16:50:22.129Z,3.90
2017-12-08T16:52:48.465Z,3.90
2017-12-08T16:55:14.947Z,3.90
2017-12-08T16:57:42.159Z,3.90
2017-12-08T17:00:08.763Z,3.90
2017-12-08T17:02:35.980Z,4.00
2017-12-08T17:05:03.088Z,3.90
2017-12-08T17:07:30.190Z,3.90
2017-12-08T17:09:57.290Z,3.90
2017-12-08T17:12:23.622Z,3.90
2017-12-08T17:14:49.956Z,4.00
2017-12-08T17:17:16.379Z,4.00
2017-12-08T17:19:42.689Z,4.00
2017-12-08T17:22:09.021Z,4.00
2017-12-08T17:24:35.351Z,4.00
2017-12-08T17:27:01.658Z,4.00
2017-12-08T17:29:28.705Z,3.90
2017-12-08T17:31:55.747Z,3.90
2017-12-08T17:34:22.817Z,4.00
2017-12-08T17:36:49.117Z,3.90
2017-12-08T17:39:15.581Z,3.90
2017-12-08T17:41:41.953Z,3.90
2017-12-08T17:44:08.278Z,3.80
2017-12-08T17:46:34.632Z,3.70
2017-12-08T17:49:01.031Z,3.70
2017-12-08T17:51:27.350Z,3.70
2017-12-08T17:53:53.692Z,3.70
2017-12-08T17:56:20.058Z,3.70
2017-12-08T17:58:46.406Z,3.70
2017-12-08T18:01:14.644Z,3.70
2017-12-08T18:03:41.200Z,3.70
2017-12-08T18:06:07.584Z,3.70
2017-12-08T18:08:34.028Z,3.60
2017-12-08T18:11:00.485Z,3.60
2017-12-08T18:13:26.906Z,3.60
2017-12-08T18:15:53.756Z,3.60
2017-12-08T18:18:20.163Z,3.60
2017-12-08T18:20:46.603Z,3.50
2017-12-08T18:23:13.170Z,3.50
2017-12-08T18:25:39.605Z,3.50
2017-12-08T18:28:13.356Z,3.50
2017-12-08T18:30:39.812Z,3.50
2017-12-08T18:33:06.238Z,3.50
2017-12-08T18:35:33.264Z,3.50
2017-12-08T18:37:59.893Z,3.50
2017-12-08T18:40:26.356Z,3.50
2017-12-08T18:42:53.358Z,3.60
2017-12-08T18:45:19.815Z,3.50
2017-12-08T18:47:46.233Z,3.50
2017-12-08T18:50:12.793Z,3.50
2017-12-08T18:52:40.085Z,3.70
2017-12-08T18:55:06.569Z,3.70
2017-12-08T18:57:33.145Z,3.50
2017-12-08T18:59:59.598Z,3.30
2017-12-08T19:02:27.127Z,3.20
2017-12-08T19:04:53.539Z,2.90
2017-12-08T19:07:20.105Z,2.70
2017-12-08T19:09:46.670Z,2.60
2017-12-08T19:12:13.105Z,2.40
2017-12-08T19:14:39.912Z,2.30
2017-12-08T19:17:06.306Z,2.10
2017-12-08T19:19:33.188Z,2.10
2017-12-08T19:21:59.780Z,2.10
2017-12-08T19:24:26.594Z,2.10
2017-12-08T19:26:53.110Z,2.20
2017-12-08T19:29:19.450Z,2.20
2017-12-08T19:31:46.004Z,2.30
2017-12-08T19:34:12.413Z,2.30
2017-12-08T19:36:39.011Z,2.40
2017-12-08T19:39:05.587Z,2.50
2017-12-08T19:41:32.089Z,2.60
2017-12-08T19:43:58.999Z,2.60
2017-12-08T19:46:25.651Z,2.70
2017-12-08T19:48:52.341Z,2.80
2017-12-08T19:51:19.077Z,2.70
2017-12-08T19:53:45.449Z,2.80
2017-12-08T19:56:11.774Z,2.80
2017-12-08T19:58:38.209Z,2.80
2017-12-08T20:01:04.638Z,2.70
2017-12-08T20:03:31.129Z,2.60
2017-12-08T20:05:58.013Z,2.70
2017-12-08T20:08:31.273Z,2.60
2017-12-08T20:10:57.701Z,2.50
2017-12-08T20:13:24.175Z,2.50
2017-12-08T20:15:50.847Z,2.50
2017-12-08T20:18:17.386Z,2.40
2017-12-08T20:20:43.761Z,2.40
2017-12-08T20:23:10.401Z,2.30
2017-12-08T20:25:36.840Z,2.30
2017-12-08T20:28:03.392Z,2.30
2017-12-08T20:30:29.907Z,2.30
2017-12-08T20:32:56.483Z,2.20
2017-12-08T20:35:23.278Z,2.20
2017-12-08T20:37:50.464Z,2.20
2017-12-08T20:40:16.890Z,2.20
2017-12-08T20:42:43.252Z,2.10
2017-12-08T20:45:10.424Z,2.10
2017-12-08T20:47:36.810Z,2.10
2017-12-08T20:50:03.493Z,2.10
2017-12-08T20:52:29.885Z,2.10
2017-12-08T20:54:56.348Z,2.10
2017-12-08T20:57:22.852Z,2.00
2017-12-08T20:59:49.289Z,2.00
2017-12-08T21:02:15.698Z,2.00
2017-12-08T21:04:42.153Z,2.00
2017-12-08T21:07:08.616Z,2.00
2017-12-08T21:09:35.309Z,2.00
2017-12-08T21:12:01.787Z,2.00
2017-12-08T21:14:28.273Z,2.00
2017-12-08T21:16:54.757Z,2.00
2017-12-08T21:19:29.974Z,2.00
2017-12-08T21:21:56.323Z,2.10
2017-12-08T21:24:22.740Z,2.00
2017-12-08T21:26:49.136Z,2.00
2017-12-08T21:29:15.621Z,2.10
2017-12-08T21:31:42.019Z,2.10
2017-12-08T21:34:08.345Z,2.10
2017-12-08T21:36:34.773Z,2.20
2017-12-08T21:39:01.140Z,2.20
2017-12-08T21:41:27.515Z,2.20
2017-12-08T21:43:54.793Z,2.30
2017-12-08T21:46:21.160Z,2.40
2017-12-08T21:48:47.513Z,2.50
2017-12-08T21:51:14.091Z,2.40
2017-12-08T21:53:40.440Z,2.50
2017-12-08T21:56:06.834Z,2.50
2017-12-08T21:58:41.205Z,2.50
2017-12-08T22:01:07.585Z,2.60
2017-12-08T22:03:34.551Z,2.50
2017-12-08T22:06:00.949Z,2.50
2017-12-08T22:08:27.334Z,2.50
2017-12-08T22:10:53.698Z,2.40
2017-12-08T22:13:20.483Z,2.40
2017-12-08T22:15:47.395Z,2.40
2017-12-08T22:18:14.587Z,2.30
2017-12-08T22:20:41.730Z,2.20
2017-12-08T22:23:08.200Z,2.20
2017-12-08T22:25:35.002Z,2.10
2017-12-08T22:28:02.811Z,2.20
2017-12-08T22:30:29.172Z,2.20
2017-12-08T22:32:55.674Z,2.20
2017-12-08T22:35:22.099Z,2.30
2017-12-08T22:37:49.405Z,2.40
2017-12-08T22:40:15.820Z,2.40
2017-12-08T22:42:42.260Z,2.40
2017-12-08T22:45:08.691Z,2.40
2017-12-08T22:47:35.294Z,2.40
2017-12-08T22:50:01.765Z,2.30
2017-12-08T22:52:28.197Z,2.20
2017-12-08T22:54:54.612Z,2.20
2017-12-08T22:57:21.022Z,2.10
2017-12-08T22:59:48.312Z,2.10
2017-12-08T23:02:14.850Z,2.00
2017-12-08T23:04:41.210Z,2.00
2017-12-08T23:07:08.341Z,1.90
2017-12-08T23:09:35.046Z,1.90
2017-12-08T23:12:01.475Z,1.90
2017-12-08T23:14:27.799Z,1.90
2017-12-08T23:16:54.220Z,1.90
2017-12-08T23:19:20.579Z,1.80
2017-12-08T23:21:46.994Z,1.90
2017-12-08T23:24:13.385Z,1.90
2017-12-08T23:26:39.876Z,1.80
2017-12-08T23:29:06.302Z,1.80
2017-12-08T23:31:32.700Z,1.70
2017-12-08T23:33:59.211Z,1.70
2017-12-08T23:36:25.709Z,1.60
2017-12-08T23:38:52.135Z,1.60
2017-12-08T23:41:18.575Z,1.50
2017-12-08T23:43:45.827Z,1.60
2017-12-08T23:46:12.225Z,1.50
2017-12-08T23:48:38.562Z,1.50
2017-12-08T23:51:04.952Z,1.50
2017-12-08T23:53:31.322Z,1.50
2017-12-08T23:55:57.715Z,1.50
2017-12-08T23:58:24.118Z,1.50
